Time;durP1;ratioP1;P1;durP2;ratioP2;P2;SDS_P1;SDS_P2;PMS_P1;PMS_P2;Temp;Humidity;BMP_temperature;BMP_pressure;BME280_temperature;BME280_humidity;BME280_pressure;Samples;Min_cycle;Max_cycle;Signal;HPM_P1;HPM_P2
2022/12/01 00:02:08;;;;;;;22.97;14.43;;;3.00;99.90;;;;;;5090804;28;20471;-48
2022/12/01 00:04:36;;;;;;;19.60;14.57;;;3.00;99.90;;;;;;5090401;28;20446;-48
2022/12/01 00:07:03;;;;;;;20.43;14.63;;;3.20;99.90;;;;;;5090876;28;20441;-49
2022/12/01 00:12:14;;;;;;;19.87;15.10;;;3.00;99.90;;;;;;5090281;28;20968;-48
2022/12/01 00:14:41;;;;;;;17.37;13.13;;;3.00;99.90;;;;;;5090577;28;20440;-47
2022/12/01 00:17:08;;;;;;;23.60;14.10;;;3.00;99.90;;;;;;5090552;28;20567;-50
2022/12/01 00:19:36;;;;;;;22.83;15.70;;;3.00;99.90;;;;;;5090764;28;20799;-51
2022/12/01 00:22:03;;;;;;;20.80;14.13;;;2.90;99.90;;;;;;5080310;28;20464;-48
2022/12/01 00:24:30;;;;;;;19.27;13.07;;;3.10;99.90;;;;;;5090482;28;20458;-47
2022/12/01 00:26:57;;;;;;;22.00;14.63;;;3.10;99.90;;;;;;5090719;28;20545;-49
2022/12/01 00:29:23;;;;;;;25.90;15.33;;;3.00;99.90;;;;;;5094740;28;20444;-48
2022/12/01 00:31:50;;;;;;;19.97;13.03;;;3.10;99.90;;;;;;5094839;28;20476;-48
2022/12/01 00:34:23;;;;;;;19.57;12.77;;;3.10;99.90;;;;;;5094851;28;20531;-49
2022/12/01 00:36:51;;;;;;;24.50;14.53;;;3.00;99.90;;;;;;5094662;28;20996;-48
2022/12/01 00:39:18;;;;;;;22.80;14.00;;;3.00;99.90;;;;;;5094972;28;20532;-47
2022/12/01 00:41:45;;;;;;;24.90;13.67;;;3.00;99.90;;;;;;5094397;28;20552;-47
2022/12/01 00:44:12;;;;;;;24.27;15.77;;;3.10;99.90;;;;;;5094055;28;20439;-48
2022/12/01 00:46:39;;;;;;;21.20;13.77;;;3.20;99.90;;;;;;5094484;28;20436;-48
2022/12/01 00:49:06;;;;;;;23.37;15.77;;;3.30;99.90;;;;;;5094507;28;20771;-50
2022/12/01 00:51:33;;;;;;;21.50;14.30;;;3.30;99.90;;;;;;5094317;28;20688;-48
2022/12/01 00:54:01;;;;;;;22.60;14.70;;;3.30;99.90;;;;;;5094714;28;20527;-48
2022/12/01 00:56:28;;;;;;;21.70;12.77;;;3.30;99.90;;;;;;5094658;28;20478;-48
2022/12/01 00:58:54;;;;;;;16.30;12.90;;;3.30;99.90;;;;;;5094327;28;20444;-49
2022/12/01 01:01:21;;;;;;;23.90;12.90;;;3.30;99.90;;;;;;5094258;28;20492;-47
2022/12/01 01:03:48;;;;;;;20.00;12.80;;;3.30;99.90;;;;;;5094364;28;21017;-47
2022/12/01 01:06:15;;;;;;;17.37;11.63;;;3.30;99.90;;;;;;5093758;28;20532;-49
2022/12/01 01:08:42;;;;;;;16.33;12.10;;;3.40;99.90;;;;;;5094667;28;20479;-48
2022/12/01 01:11:11;;;;;;;18.73;13.37;;;3.40;99.90;;;;;;5093980;28;21014;-49
2022/12/01 01:13:38;;;;;;;18.23;12.53;;;3.50;99.90;;;;;;5093480;28;20444;-49
2022/12/01 01:16:07;;;;;;;20.13;11.87;;;3.40;99.90;;;;;;5094074;28;20441;-47
2022/12/01 01:18:34;;;;;;;17.37;11.20;;;3.30;99.90;;;;;;5094336;28;20522;-48
2022/12/01 01:21:04;;;;;;;21.97;13.37;;;3.30;99.90;;;;;;5093714;28;20810;-48
2022/12/01 01:23:32;;;;;;;18.37;11.90;;;3.00;99.90;;;;;;5094075;28;20556;-47
2022/12/01 01:26:02;;;;;;;18.67;13.00;;;2.90;99.90;;;;;;5094493;28;20530;-48
2022/12/01 01:28:30;;;;;;;17.00;11.93;;;3.10;99.90;;;;;;5093837;28;20452;-47
2022/12/01 01:30:57;;;;;;;22.00;14.60;;;3.10;99.90;;;;;;5094012;28;20471;-48
2022/12/01 01:33:24;;;;;;;21.83;14.77;;;3.10;99.90;;;;;;5092984;28;20446;-50
2022/12/01 01:35:51;;;;;;;17.23;13.43;;;3.00;99.90;;;;;;5091840;28;20820;-50
2022/12/01 01:38:18;;;;;;;16.83;11.40;;;3.20;99.90;;;;;;5091559;28;20482;-48
2022/12/01 01:40:45;;;;;;;17.37;12.47;;;3.20;99.90;;;;;;5092128;28;20448;-48
2022/12/01 01:43:15;;;;;;;19.03;12.40;;;3.20;99.90;;;;;;5091299;28;20440;-48
2022/12/01 01:45:44;;;;;;;18.43;12.13;;;2.90;99.90;;;;;;5092380;28;20445;-47
2022/12/01 01:48:13;;;;;;;17.40;13.10;;;2.80;99.90;;;;;;5092117;28;20452;-48
2022/12/01 01:50:41;;;;;;;22.50;12.30;;;2.80;99.90;;;;;;5093051;28;20436;-48
2022/12/01 01:53:12;;;;;;;18.50;12.57;;;2.80;99.90;;;;;;5086865;28;20954;-50
2022/12/01 01:55:39;;;;;;;16.93;11.23;;;2.90;99.90;;;;;;5093797;28;20536;-48
2022/12/01 01:58:09;;;;;;;20.90;11.83;;;2.80;99.90;;;;;;5093308;28;20563;-48
2022/12/01 02:00:36;;;;;;;20.13;13.50;;;2.70;99.90;;;;;;5092191;28;20925;-48
2022/12/01 02:03:05;;;;;;;19.53;13.93;;;2.70;99.90;;;;;;5093382;28;20443;-47
2022/12/01 02:05:34;;;;;;;22.63;13.10;;;2.70;99.90;;;;;;5092800;28;20448;-47
2022/12/01 02:08:03;;;;;;;21.60;13.43;;;2.70;99.90;;;;;;5093262;28;20442;-48
2022/12/01 02:10:35;;;;;;;19.63;11.93;;;2.70;99.90;;;;;;5092705;28;20531;-47
2022/12/01 02:13:13;;;;;;;19.77;12.70;;;2.70;99.90;;;;;;5093405;28;20471;-47
2022/12/01 02:15:50;;;;;;;18.67;11.97;;;2.70;99.90;;;;;;5092734;28;20482;-48
2022/12/01 02:18:25;;;;;;;16.27;11.90;;;2.70;99.90;;;;;;5092996;28;20555;-47
2022/12/01 02:21:20;;;;;;;22.33;13.43;;;2.80;99.90;;;;;;5092082;28;20466;-47
2022/12/01 02:24:24;;;;;;;20.90;13.70;;;2.80;99.90;;;;;;5092757;28;20487;-47
2022/12/01 02:26:59;;;;;;;16.77;10.67;;;2.90;99.90;;;;;;5092999;28;20535;-48
2022/12/01 02:29:49;;;;;;;18.13;12.60;;;3.00;99.90;;;;;;5093132;28;20524;-47
2022/12/01 02:32:26;;;;;;;24.70;13.67;;;2.90;99.90;;;;;;5093410;28;20563;-49
2022/12/01 02:34:58;;;;;;;20.80;13.83;;;2.90;99.90;;;;;;5081096;28;20444;-48
2022/12/01 02:37:31;;;;;;;22.30;14.43;;;2.90;99.90;;;;;;5092362;28;21014;-49
2022/12/01 02:40:07;;;;;;;18.70;12.27;;;2.80;99.90;;;;;;5092292;28;20482;-48
2022/12/01 02:42:52;;;;;;;20.80;14.10;;;3.00;99.90;;;;;;5092291;28;20578;-49
2022/12/01 02:45:27;;;;;;;17.60;12.50;;;3.00;99.90;;;;;;5098077;28;20439;-47
2022/12/01 02:47:59;;;;;;;16.23;10.97;;;3.10;99.90;;;;;;5095953;28;20535;-49
2022/12/01 02:50:28;;;;;;;21.73;13.60;;;2.90;99.90;;;;;;5089647;28;20440;-48
2022/12/01 02:52:56;;;;;;;18.03;12.90;;;2.90;99.90;;;;;;5092007;28;20444;-47
2022/12/01 02:55:23;;;;;;;22.33;12.70;;;2.90;99.90;;;;;;5092405;28;20526;-48
2022/12/01 02:57:50;;;;;;;25.00;14.20;;;2.80;99.90;;;;;;5091899;28;21013;-47
2022/12/01 03:00:18;;;;;;;22.10;13.00;;;2.90;99.90;;;;;;5091954;28;20570;-48
2022/12/01 03:02:57;;;;;;;18.90;13.33;;;3.00;99.90;;;;;;5092012;28;20547;-49
2022/12/01 03:05:31;;;;;;;22.57;14.43;;;3.10;99.90;;;;;;5092148;28;20523;-47
2022/12/01 03:08:06;;;;;;;21.97;14.03;;;3.20;99.90;;;;;;5092495;28;20451;-49
2022/12/01 03:10:43;;;;;;;21.63;14.20;;;3.30;99.90;;;;;;5092218;28;20539;-51
2022/12/01 03:13:19;;;;;;;22.70;14.33;;;3.40;99.90;;;;;;5091614;28;20968;-47
2022/12/01 03:15:54;;;;;;;23.07;13.40;;;3.40;99.90;;;;;;5091599;28;20892;-47
2022/12/01 03:18:29;;;;;;;20.80;13.57;;;3.40;99.90;;;;;;5091112;28;20478;-48
2022/12/01 03:21:02;;;;;;;21.00;12.73;;;3.30;99.90;;;;;;5090993;28;20457;-48
2022/12/01 03:23:31;;;;;;;20.03;12.33;;;3.00;99.90;;;;;;5091655;28;20523;-47
2022/12/01 03:26:01;;;;;;;22.80;12.63;;;2.90;99.90;;;;;;5091422;28;20450;-47
2022/12/01 03:28:32;;;;;;;21.50;13.00;;;3.00;99.90;;;;;;5091183;28;20441;-48
2022/12/01 03:31:05;;;;;;;19.20;11.73;;;2.90;99.90;;;;;;5091383;28;20486;-47
2022/12/01 03:33:35;;;;;;;20.90;13.13;;;3.00;99.90;;;;;;5090827;28;20455;-47
2022/12/01 03:36:08;;;;;;;21.87;13.23;;;3.20;99.90;;;;;;5091835;28;20818;-50
2022/12/01 03:38:37;;;;;;;21.23;13.43;;;3.10;99.90;;;;;;5091495;28;20472;-50
2022/12/01 03:41:08;;;;;;;20.70;12.77;;;3.10;99.90;;;;;;5091358;28;20460;-48
2022/12/01 03:43:40;;;;;;;19.17;12.03;;;3.10;99.90;;;;;;5090951;28;20827;-50
2022/12/01 03:46:10;;;;;;;16.50;10.83;;;3.20;99.90;;;;;;5091297;28;20445;-48
2022/12/01 03:48:39;;;;;;;20.03;12.90;;;3.20;99.90;;;;;;5091997;28;20450;-49
2022/12/01 03:51:15;;;;;;;16.87;10.87;;;3.20;99.90;;;;;;5091144;28;20511;-48
2022/12/01 03:53:51;;;;;;;18.57;11.57;;;3.30;99.90;;;;;;5091378;28;20476;-48
2022/12/01 03:56:22;;;;;;;20.87;12.13;;;3.30;99.90;;;;;;5090764;28;20454;-48
2022/12/01 03:58:52;;;;;;;16.80;11.20;;;3.30;99.90;;;;;;5090734;28;20977;-47
2022/12/01 04:01:21;;;;;;;13.80;11.00;;;3.20;99.90;;;;;;5090792;28;20567;-47
2022/12/01 04:03:48;;;;;;;16.20;11.17;;;3.30;99.90;;;;;;5091012;28;20544;-47
2022/12/01 04:06:16;;;;;;;18.10;11.50;;;3.40;99.90;;;;;;5090423;28;20495;-47
2022/12/01 04:08:43;;;;;;;17.30;12.07;;;3.50;99.90;;;;;;5091214;28;20472;-47
2022/12/01 04:13:54;;;;;;;14.67;10.83;;;3.60;99.90;;;;;;5090702;28;20448;-47
2022/12/01 04:16:21;;;;;;;16.37;11.43;;;3.60;99.90;;;;;;5090678;28;20434;-47
2022/12/01 04:18:48;;;;;;;17.90;12.17;;;3.70;99.90;;;;;;5091011;28;20478;-47
2022/12/01 04:21:16;;;;;;;18.00;11.40;;;3.70;99.90;;;;;;5090687;28;20804;-48
2022/12/01 04:26:23;;;;;;;19.50;11.50;;;3.70;99.90;;;;;;5088437;28;20817;-50
2022/12/01 04:28:50;;;;;;;16.70;10.73;;;3.80;99.90;;;;;;5090893;28;20434;-48
2022/12/01 04:31:17;;;;;;;14.57;9.93;;;3.80;99.90;;;;;;5091088;28;20829;-48
2022/12/01 04:33:44;;;;;;;12.83;9.43;;;3.80;99.90;;;;;;5090327;28;20957;-48
2022/12/01 04:36:11;;;;;;;16.80;11.90;;;3.70;99.90;;;;;;5090614;28;20531;-47
2022/12/01 04:38:39;;;;;;;16.00;11.13;;;3.70;99.90;;;;;;5090604;28;20479;-47
2022/12/01 04:41:09;;;;;;;18.00;10.07;;;3.70;99.90;;;;;;5090647;28;20567;-47
2022/12/01 04:43:36;;;;;;;15.70;10.20;;;3.70;99.90;;;;;;5090590;28;20444;-47
2022/12/01 04:46:03;;;;;;;15.23;11.23;;;3.70;99.90;;;;;;5090654;28;20441;-48
2022/12/01 04:48:30;;;;;;;18.83;10.53;;;3.70;99.90;;;;;;5090443;28;20430;-47
2022/12/01 04:50:57;;;;;;;17.10;12.10;;;3.70;99.90;;;;;;5090489;28;21083;-48
2022/12/01 04:53:24;;;;;;;15.80;10.80;;;3.70;99.90;;;;;;5089997;28;20523;-49
2022/12/01 04:55:52;;;;;;;15.07;10.17;;;3.70;99.90;;;;;;5090667;28;20445;-49
2022/12/01 04:58:19;;;;;;;18.30;11.27;;;3.70;99.90;;;;;;5090944;28;20469;-51
2022/12/01 05:00:46;;;;;;;19.03;11.37;;;3.70;99.90;;;;;;5090407;28;20447;-47
2022/12/01 05:03:13;;;;;;;21.10;11.50;;;3.70;99.90;;;;;;5090568;28;20440;-47
2022/12/01 05:05:40;;;;;;;15.60;10.40;;;3.70;99.90;;;;;;5090448;28;20451;-51
2022/12/01 05:08:06;;;;;;;18.27;12.03;;;3.60;99.90;;;;;;5090355;28;20789;-47
2022/12/01 05:10:35;;;;;;;15.63;11.10;;;3.50;99.90;;;;;;5090121;28;20462;-47
2022/12/01 05:13:03;;;;;;;16.00;10.80;;;3.40;99.90;;;;;;5090200;28;20445;-47
2022/12/01 05:15:31;;;;;;;20.33;10.87;;;3.20;99.90;;;;;;5093842;28;20468;-47
2022/12/01 05:17:58;;;;;;;16.60;11.80;;;3.30;99.90;;;;;;5093857;28;20508;-47
2022/12/01 05:23:12;;;;;;;17.47;11.43;;;3.40;99.90;;;;;;5090857;28;20428;-47
2022/12/01 05:25:39;;;;;;;18.87;12.67;;;3.50;99.90;;;;;;5089826;28;20442;-47
2022/12/01 05:28:07;;;;;;;17.23;12.40;;;3.50;99.90;;;;;;5084001;28;20797;-47
2022/12/01 05:30:34;;;;;;;22.23;13.67;;;3.40;99.90;;;;;;5093783;28;20448;-48
2022/12/01 05:33:00;;;;;;;17.57;10.73;;;3.40;99.90;;;;;;5093374;28;20441;-48
2022/12/01 05:35:27;;;;;;;13.50;9.97;;;3.20;99.90;;;;;;5092699;28;20440;-47
2022/12/01 05:37:54;;;;;;;12.77;10.10;;;3.20;99.90;;;;;;5093550;28;20497;-47
2022/12/01 05:40:21;;;;;;;13.60;8.80;;;3.20;99.90;;;;;;5088399;28;20441;-48
2022/12/01 05:42:48;;;;;;;12.97;10.77;;;3.00;99.90;;;;;;5081688;28;20470;-47
2022/12/01 05:45:16;;;;;;;14.60;9.90;;;2.80;99.90;;;;;;5092789;28;20444;-48
2022/12/01 05:47:43;;;;;;;15.53;10.83;;;2.70;99.90;;;;;;5079481;28;20452;-48
2022/12/01 05:50:11;;;;;;;14.90;10.63;;;2.60;99.90;;;;;;5093440;28;20531;-47
2022/12/01 05:52:37;;;;;;;18.17;10.87;;;2.50;99.90;;;;;;5092541;28;20463;-47
2022/12/01 05:55:05;;;;;;;14.77;10.00;;;2.60;99.90;;;;;;5092687;28;20531;-47
2022/12/01 05:57:32;;;;;;;17.37;11.40;;;2.60;99.90;;;;;;5093922;28;20486;-47
2022/12/01 06:00:00;;;;;;;23.10;12.43;;;2.60;99.90;;;;;;5092849;28;20467;-50
2022/12/01 06:02:28;;;;;;;16.73;12.60;;;2.60;99.90;;;;;;5090484;28;20552;-47
2022/12/01 06:04:55;;;;;;;24.80;11.40;;;2.70;99.90;;;;;;5092958;28;20462;-47
2022/12/01 06:07:24;;;;;;;22.43;12.47;;;2.60;99.90;;;;;;5093589;28;20935;-48
2022/12/01 06:09:50;;;;;;;19.93;12.70;;;2.70;99.90;;;;;;5093418;28;20964;-47
2022/12/01 06:12:17;;;;;;;24.20;15.70;;;2.80;99.90;;;;;;5091600;28;20466;-48
2022/12/01 06:14:44;;;;;;;21.87;14.17;;;2.70;99.90;;;;;;5093179;28;20444;-49
2022/12/01 06:17:11;;;;;;;21.63;14.57;;;2.80;99.90;;;;;;5093375;28;21007;-47
2022/12/01 06:19:40;;;;;;;28.43;16.57;;;3.00;99.90;;;;;;5092471;28;20768;-47
2022/12/01 06:22:06;;;;;;;22.53;17.50;;;3.20;99.90;;;;;;5090361;28;21000;-49
2022/12/01 06:24:33;;;;;;;24.73;16.30;;;3.30;99.90;;;;;;5092394;28;20448;-47
2022/12/01 06:27:00;;;;;;;25.33;16.20;;;3.40;99.90;;;;;;5090824;28;20809;-49
2022/12/01 06:29:27;;;;;;;27.33;17.23;;;3.20;99.90;;;;;;5091528;28;20732;-49
2022/12/01 06:31:54;;;;;;;26.77;15.80;;;3.20;99.90;;;;;;5091455;28;20924;-48
2022/12/01 06:34:21;;;;;;;25.67;15.37;;;3.30;99.90;;;;;;5091082;28;20533;-47
2022/12/01 06:36:49;;;;;;;20.03;14.63;;;3.40;99.90;;;;;;5091714;28;20480;-49
2022/12/01 06:39:16;;;;;;;23.60;15.70;;;3.40;99.90;;;;;;5091721;28;20471;-50
2022/12/01 06:41:43;;;;;;;23.13;16.23;;;3.50;99.90;;;;;;5092550;28;20550;-48
2022/12/01 06:44:10;;;;;;;26.80;15.47;;;3.50;99.90;;;;;;5092617;28;20950;-48
2022/12/01 06:46:37;;;;;;;25.10;15.97;;;3.60;99.90;;;;;;5093229;28;20517;-47
2022/12/01 06:49:04;;;;;;;20.23;14.80;;;3.60;99.90;;;;;;5093081;28;20515;-50
2022/12/01 06:51:33;;;;;;;22.97;15.80;;;3.60;99.90;;;;;;5092742;28;20464;-47
2022/12/01 06:54:01;;;;;;;27.00;14.80;;;3.60;99.90;;;;;;5092493;28;20471;-47
2022/12/01 06:56:28;;;;;;;19.37;12.70;;;3.70;99.90;;;;;;5092754;28;20519;-49
2022/12/01 06:58:54;;;;;;;26.20;15.43;;;3.60;99.90;;;;;;5092468;28;20478;-47
2022/12/01 07:01:22;;;;;;;21.93;14.53;;;3.70;99.90;;;;;;5092700;28;20471;-47
2022/12/01 07:03:50;;;;;;;29.37;18.73;;;3.60;99.90;;;;;;5092446;28;20447;-47
2022/12/01 07:06:17;;;;;;;25.07;16.60;;;3.50;99.90;;;;;;5092250;28;20442;-47
2022/12/01 07:08:44;;;;;;;24.17;15.93;;;3.30;99.90;;;;;;5092642;28;20529;-48
2022/12/01 07:11:14;;;;;;;20.57;15.57;;;3.40;99.90;;;;;;5092309;28;20461;-47
2022/12/01 07:13:44;;;;;;;25.97;16.00;;;3.40;99.90;;;;;;5092237;28;20535;-47
2022/12/01 07:16:11;;;;;;;24.80;15.87;;;3.50;99.90;;;;;;5092308;28;20451;-47
2022/12/01 07:18:39;;;;;;;26.03;13.93;;;3.30;99.90;;;;;;5092255;28;20517;-47
2022/12/01 07:21:08;;;;;;;25.30;18.00;;;3.40;99.90;;;;;;5091891;28;20492;-47
2022/12/01 07:23:35;;;;;;;28.13;15.87;;;3.50;99.90;;;;;;5091911;28;20438;-47
2022/12/01 07:26:04;;;;;;;24.73;16.63;;;3.40;99.90;;;;;;5091994;28;20527;-47
2022/12/01 07:28:33;;;;;;;25.10;16.40;;;3.40;99.90;;;;;;5092230;28;20514;-47
2022/12/01 07:31:04;;;;;;;24.70;16.30;;;3.40;99.90;;;;;;5091663;28;20468;-47
2022/12/01 07:33:32;;;;;;;28.80;16.20;;;3.50;99.90;;;;;;5092013;28;20467;-47
2022/12/01 07:35:59;;;;;;;30.77;18.00;;;3.40;99.90;;;;;;5092019;28;20445;-47
2022/12/01 07:38:27;;;;;;;32.47;17.97;;;3.00;99.90;;;;;;5091648;28;20514;-48
2022/12/01 07:40:54;;;;;;;34.20;20.47;;;3.30;99.90;;;;;;5091884;28;20540;-48
2022/12/01 07:43:21;;;;;;;28.50;17.30;;;3.40;99.90;;;;;;5091764;28;20444;-46
2022/12/01 07:45:49;;;;;;;30.80;19.67;;;3.40;99.90;;;;;;5091806;28;20952;-47
2022/12/01 07:48:16;;;;;;;27.37;19.80;;;3.50;99.90;;;;;;5091780;28;20522;-50
2022/12/01 07:50:43;;;;;;;30.97;16.93;;;3.50;99.90;;;;;;5091857;28;20442;-47
2022/12/01 07:53:09;;;;;;;29.23;18.20;;;3.50;99.90;;;;;;5091702;28;20810;-47
2022/12/01 07:55:36;;;;;;;25.60;17.30;;;3.50;99.90;;;;;;5091749;28;20441;-46
2022/12/01 07:58:03;;;;;;;27.50;16.90;;;3.50;99.90;;;;;;5091858;28;20491;-47
2022/12/01 08:00:30;;;;;;;29.73;16.67;;;3.20;99.90;;;;;;5091792;28;20872;-47
2022/12/01 08:02:58;;;;;;;37.20;20.10;;;3.30;99.90;;;;;;5091388;28;20518;-47
2022/12/01 08:05:25;;;;;;;26.23;17.30;;;3.40;99.90;;;;;;5091618;28;20534;-47
2022/12/01 08:07:53;;;;;;;25.27;16.73;;;3.50;99.90;;;;;;5091602;28;20535;-47
2022/12/01 08:10:20;;;;;;;29.37;17.03;;;3.60;99.90;;;;;;5091675;28;20435;-47
2022/12/01 08:12:47;;;;;;;29.30;17.47;;;3.50;99.90;;;;;;5091693;28;20551;-46
2022/12/01 08:15:14;;;;;;;34.07;18.27;;;3.50;99.90;;;;;;5091388;28;20444;-47
2022/12/01 08:17:41;;;;;;;24.33;17.30;;;3.40;99.90;;;;;;5091596;28;20442;-47
2022/12/01 08:20:11;;;;;;;29.83;16.90;;;3.40;99.90;;;;;;5090856;28;20473;-47
2022/12/01 08:22:38;;;;;;;26.80;15.57;;;3.50;99.90;;;;;;5091438;28;20473;-47
2022/12/01 08:25:05;;;;;;;24.97;15.83;;;3.50;99.90;;;;;;5091061;28;20445;-49
2022/12/01 08:27:32;;;;;;;23.43;15.87;;;3.60;99.90;;;;;;5091187;28;20527;-47
2022/12/01 08:29:59;;;;;;;25.17;14.87;;;3.60;99.90;;;;;;5091674;28;20438;-48
2022/12/01 08:32:26;;;;;;;27.75;17.98;;;3.80;99.90;;;;;;5091653;28;20432;-47
2022/12/01 08:34:52;;;;;;;24.23;17.30;;;3.60;99.90;;;;;;5091345;28;20209;-47
2022/12/01 08:37:21;;;;;;;26.77;15.27;;;3.60;99.90;;;;;;5091209;28;20440;-48
2022/12/01 08:39:47;;;;;;;24.33;14.97;;;3.60;99.90;;;;;;5090781;28;20472;-47
2022/12/01 08:42:14;;;;;;;25.90;16.30;;;3.30;99.90;;;;;;5091350;28;20458;-47
2022/12/01 08:44:41;;;;;;;21.03;14.57;;;3.30;99.90;;;;;;5091306;28;20448;-47
2022/12/01 08:47:08;;;;;;;27.70;16.27;;;3.50;99.90;;;;;;5091248;28;20436;-49
2022/12/01 08:49:35;;;;;;;26.20;13.93;;;3.60;99.90;;;;;;5093450;28;20951;-47
2022/12/01 08:52:02;;;;;;;24.70;14.50;;;3.50;99.90;;;;;;5095011;28;20460;-48
2022/12/01 08:54:30;;;;;;;22.63;14.70;;;3.50;99.90;;;;;;5093114;28;20888;-47
2022/12/01 08:56:57;;;;;;;27.40;16.60;;;3.40;99.90;;;;;;5095133;28;20442;-47
2022/12/01 08:59:24;;;;;;;23.07;14.40;;;3.40;99.90;;;;;;5093771;28;20566;-47
2022/12/01 09:01:54;;;;;;;25.23;15.00;;;3.40;99.90;;;;;;5094270;28;20848;-48
2022/12/01 09:04:22;;;;;;;22.20;15.10;;;3.20;99.90;;;;;;5094239;28;20929;-47
2022/12/01 09:06:51;;;;;;;24.30;14.90;;;3.30;99.90;;;;;;5094966;28;20528;-47
2022/12/01 09:09:20;;;;;;;22.27;15.00;;;3.20;99.90;;;;;;5093180;28;20523;-47
2022/12/01 09:11:48;;;;;;;21.77;16.47;;;3.10;99.90;;;;;;5094531;28;21064;-47
2022/12/01 09:14:16;;;;;;;24.90;14.97;;;3.20;99.90;;;;;;5094361;28;20445;-47
2022/12/01 09:16:44;;;;;;;25.77;15.77;;;3.10;99.90;;;;;;5094312;28;20444;-47
2022/12/01 09:19:12;;;;;;;25.70;15.37;;;3.10;99.90;;;;;;5093321;28;20563;-47
2022/12/01 09:21:41;;;;;;;24.57;15.27;;;3.10;99.90;;;;;;5094729;28;20470;-47
2022/12/01 09:24:11;;;;;;;25.23;15.90;;;3.10;99.90;;;;;;5094207;28;20441;-50
2022/12/01 09:26:38;;;;;;;27.80;16.53;;;3.10;99.90;;;;;;5094554;28;20450;-48
2022/12/01 09:29:08;;;;;;;21.93;15.07;;;3.10;99.90;;;;;;5094174;28;20436;-48
2022/12/01 09:31:35;;;;;;;23.70;15.87;;;3.30;99.90;;;;;;5094129;28;20559;-50
2022/12/01 09:34:03;;;;;;;20.20;13.83;;;3.50;99.90;;;;;;5093977;28;20436;-47
2022/12/01 09:36:32;;;;;;;20.00;13.77;;;3.70;99.90;;;;;;5094509;28;20528;-47
2022/12/01 09:38:59;;;;;;;21.60;14.20;;;3.70;99.90;;;;;;5093987;28;20472;-49
2022/12/01 09:41:30;;;;;;;22.77;14.77;;;3.80;99.90;;;;;;5093901;28;20540;-47
2022/12/01 09:44:04;;;;;;;21.17;14.07;;;3.80;99.90;;;;;;5093571;28;20527;-50
2022/12/01 09:46:39;;;;;;;22.93;13.83;;;3.80;99.90;;;;;;5093843;28;20449;-47
2022/12/01 09:49:13;;;;;;;26.67;16.37;;;3.90;99.90;;;;;;5092579;28;20436;-48
2022/12/01 09:51:39;;;;;;;21.97;14.47;;;3.50;99.90;;;;;;5093743;28;20464;-48
2022/12/01 09:54:10;;;;;;;24.63;14.17;;;3.30;99.90;;;;;;5093519;28;20940;-48
2022/12/01 09:56:43;;;;;;;26.53;14.30;;;3.40;99.90;;;;;;5092191;28;20440;-47
2022/12/01 09:59:19;;;;;;;26.73;16.63;;;3.60;99.90;;;;;;5092108;28;20483;-47
2022/12/01 10:01:55;;;;;;;20.70;15.50;;;3.60;99.90;;;;;;5092083;28;21003;-48
2022/12/01 10:04:27;;;;;;;28.70;14.50;;;3.80;99.90;;;;;;5091651;28;20450;-48
2022/12/01 10:07:00;;;;;;;22.90;13.70;;;3.60;99.90;;;;;;5092016;28;20531;-47
2022/12/01 10:09:34;;;;;;;20.00;13.67;;;3.80;99.90;;;;;;5092113;28;20527;-52
2022/12/01 10:12:11;;;;;;;23.33;14.70;;;4.00;99.90;;;;;;5093585;28;20836;-48
2022/12/01 10:14:38;;;;;;;25.93;18.13;;;4.10;99.90;;;;;;5092999;28;20565;-47
2022/12/01 10:17:21;;;;;;;25.17;16.57;;;4.00;99.90;;;;;;5093456;28;20467;-47
2022/12/01 10:19:55;;;;;;;22.33;14.53;;;4.20;99.90;;;;;;5092829;28;20570;-47
2022/12/01 10:22:51;;;;;;;21.93;14.23;;;4.20;99.90;;;;;;5091703;28;20463;-48
2022/12/01 10:25:22;;;;;;;17.93;12.80;;;4.20;99.90;;;;;;5069446;28;20441;-48
2022/12/01 10:28:04;;;;;;;22.07;14.80;;;4.30;99.90;;;;;;5091617;28;20804;-48
2022/12/01 10:30:37;;;;;;;20.57;15.20;;;4.30;99.90;;;;;;5091782;28;20466;-47
2022/12/01 10:33:19;;;;;;;23.97;13.93;;;4.30;99.90;;;;;;5091651;28;20460;-48
2022/12/01 10:35:46;;;;;;;17.57;12.90;;;4.30;99.90;;;;;;5090564;28;20950;-48
2022/12/01 10:38:21;;;;;;;16.43;12.27;;;4.30;99.90;;;;;;5093042;28;20540;-48
2022/12/01 10:40:49;;;;;;;21.03;13.40;;;4.40;99.90;;;;;;5092302;28;20566;-48
2022/12/01 10:43:16;;;;;;;17.10;11.80;;;4.40;99.90;;;;;;5090912;28;20447;-49
2022/12/01 10:45:44;;;;;;;17.97;11.17;;;4.50;99.90;;;;;;5091370;28;20461;-48
2022/12/01 10:48:15;;;;;;;18.20;13.40;;;4.50;99.90;;;;;;5091116;28;21006;-49
2022/12/01 10:50:43;;;;;;;20.77;12.70;;;4.50;99.90;;;;;;5091425;28;20465;-49
2022/12/01 10:53:26;;;;;;;17.83;12.50;;;4.50;99.90;;;;;;5091088;28;20624;-49
2022/12/01 10:56:02;;;;;;;20.77;11.87;;;4.30;99.90;;;;;;5091573;28;20530;-48
2022/12/01 10:58:30;;;;;;;21.47;11.63;;;4.20;99.90;;;;;;5092603;28;20482;-47
2022/12/01 11:01:00;;;;;;;19.57;11.50;;;4.30;99.90;;;;;;5092217;28;20493;-48
2022/12/01 11:03:31;;;;;;;20.50;12.73;;;4.30;99.90;;;;;;5092566;28;20525;-48
2022/12/01 11:06:00;;;;;;;19.87;11.37;;;4.30;99.90;;;;;;5092035;28;20541;-47
2022/12/01 11:08:33;;;;;;;16.77;11.63;;;4.00;99.90;;;;;;5091064;28;20870;-47
2022/12/01 11:11:01;;;;;;;19.33;11.80;;;4.20;99.90;;;;;;5089776;28;20461;-48
2022/12/01 11:13:30;;;;;;;13.23;10.50;;;4.20;99.90;;;;;;5090265;28;20446;-48
2022/12/01 11:15:59;;;;;;;15.70;11.30;;;4.40;99.90;;;;;;5090938;28;20875;-47
2022/12/01 11:18:33;;;;;;;17.30;10.90;;;4.30;99.90;;;;;;5090265;28;20536;-51
2022/12/01 11:21:13;;;;;;;17.83;12.80;;;4.50;99.90;;;;;;5090197;28;20898;-50
2022/12/01 11:23:45;;;;;;;19.73;13.03;;;4.50;99.90;;;;;;5091978;28;21024;-47
2022/12/01 11:26:16;;;;;;;18.30;11.37;;;4.50;99.90;;;;;;5091812;28;20457;-47
2022/12/01 11:28:53;;;;;;;26.10;13.57;;;4.50;99.90;;;;;;5092102;28;20933;-47
2022/12/01 11:31:22;;;;;;;19.70;11.73;;;4.60;99.90;;;;;;5091682;28;20460;-47
2022/12/01 11:33:53;;;;;;;18.23;11.87;;;4.70;99.90;;;;;;5091656;28;20525;-48
2022/12/01 11:36:25;;;;;;;14.37;10.10;;;4.80;99.90;;;;;;5090919;28;20528;-48
2022/12/01 11:38:57;;;;;;;17.20;10.97;;;4.70;99.90;;;;;;5091731;28;20530;-49
2022/12/01 11:41:29;;;;;;;19.90;10.90;;;4.50;99.90;;;;;;5089670;28;20476;-47
2022/12/01 11:43:57;;;;;;;18.40;11.70;;;4.70;99.90;;;;;;5091248;28;20433;-49
2022/12/01 11:46:31;;;;;;;17.50;11.77;;;4.70;99.90;;;;;;5091458;28;20445;-49
2022/12/01 11:49:00;;;;;;;16.53;9.73;;;4.80;99.90;;;;;;5091396;28;20440;-48
2022/12/01 11:51:35;;;;;;;13.73;9.50;;;4.70;99.90;;;;;;5089880;28;20464;-47
2022/12/01 11:54:14;;;;;;;16.10;10.07;;;4.80;99.90;;;;;;5088779;28;20454;-49
2022/12/01 11:56:42;;;;;;;20.60;12.83;;;4.70;99.90;;;;;;5089888;28;20437;-47
2022/12/01 11:59:13;;;;;;;19.17;10.43;;;4.80;99.90;;;;;;5089507;28;20849;-50
2022/12/01 12:01:52;;;;;;;13.47;8.80;;;4.80;99.90;;;;;;5071194;28;20547;-47
2022/12/01 12:04:35;;;;;;;14.50;9.67;;;4.70;99.90;;;;;;5081987;28;20535;-49
2022/12/01 12:07:10;;;;;;;15.73;9.67;;;4.70;99.90;;;;;;5090328;28;20507;-48
2022/12/01 12:10:02;;;;;;;14.13;8.87;;;4.70;99.90;;;;;;5090065;28;20437;-49
2022/12/01 12:12:43;;;;;;;12.00;8.40;;;5.10;99.90;;;;;;5089736;28;20467;-48
2022/12/01 12:15:20;;;;;;;14.90;8.30;;;4.80;99.90;;;;;;5090071;28;20444;-47
2022/12/01 12:18:01;;;;;;;15.37;9.47;;;4.70;99.90;;;;;;5090939;28;20531;-47
2022/12/01 12:20:39;;;;;;;15.70;11.00;;;4.80;99.90;;;;;;5091083;28;20469;-47
2022/12/01 12:23:44;;;;;;;16.90;10.17;;;4.80;99.90;;;;;;5092861;28;20425;-48
2022/12/01 12:26:19;;;;;;;12.93;8.87;;;4.80;99.90;;;;;;5073307;28;20881;-47
2022/12/01 12:29:12;;;;;;;13.33;8.53;;;4.70;99.90;;;;;;5095644;28;20911;-47
2022/12/01 12:31:49;;;;;;;13.20;9.37;;;4.70;99.90;;;;;;5095427;28;20500;-47
2022/12/01 12:34:31;;;;;;;14.90;8.40;;;4.70;99.90;;;;;;5094474;28;21024;-47
2022/12/01 12:37:11;;;;;;;10.80;8.27;;;5.30;99.90;;;;;;5095305;28;20517;-47
2022/12/01 12:39:57;;;;;;;14.30;8.53;;;5.00;99.90;;;;;;5095052;28;20476;-47
2022/12/01 12:42:36;;;;;;;14.13;9.00;;;4.70;99.90;;;;;;5095094;28;20543;-47
2022/12/01 12:45:08;;;;;;;13.10;8.93;;;4.60;99.90;;;;;;5095182;28;20531;-48
2022/12/01 12:47:46;;;;;;;16.43;10.30;;;4.60;99.90;;;;;;5095271;28;20544;-47
2022/12/01 12:50:25;;;;;;;11.57;8.20;;;4.60;99.90;;;;;;5095688;28;21093;-47
2022/12/01 12:52:57;;;;;;;12.80;8.20;;;5.50;99.90;;;;;;5095399;28;20470;-45
2022/12/01 12:55:29;;;;;;;16.70;10.00;;;5.50;99.90;;;;;;5094989;28;20527;-48
2022/12/01 12:58:02;;;;;;;13.87;10.47;;;5.00;99.90;;;;;;5095357;28;20439;-47
2022/12/01 13:00:30;;;;;;;13.33;9.93;;;4.80;99.90;;;;;;5094280;28;20560;-47
2022/12/01 13:03:03;;;;;;;12.70;10.07;;;4.80;99.90;;;;;;5094720;28;20532;-48
2022/12/01 13:05:36;;;;;;;17.37;10.00;;;4.70;99.90;;;;;;5094570;28;20444;-48